Terminal Aerodrome Forecast
Issued by NWS Buffalo, NY

Home | Current Version | Previous Version | Text Only | Print | Product List | Glossary On
Versions: 1 2 3 4 5 6 7 8 9 10 11 12 13 14 15 16 17 18 19 20 21 22 23 24 25 26 27 28 29
954
FTUS41 KBUF 222336
TAFROC
TAF
KROC 222336Z 2300/2324 05006KT 4SM -DZ BR OVC004
     FM230300 05006KT 1 1/2SM BR OVC007
     FM231100 08007KT P6SM OVC012
     FM231700 08011KT P6SM VCSH OVC020
     FM231900 07011KT 6SM -RA OVC020
     FM232200 07012KT 4SM RA OVC025=

USA.gov is the U.S. government's official web portal to all federal, state and local government web resources and services.